sensor_id;sensor_type;location;lat;lon;timestamp;pressure;altitude;pressure_sealevel;temperature;humidity
35489;BME280;21602;55.670;37.578;2023-11-19T00:02:21;100047.16;;;-4.66;73.44
35489;BME280;21602;55.670;37.578;2023-11-19T00:04:50;100041.13;;;-4.66;73.37
35489;BME280;21602;55.670;37.578;2023-11-19T00:07:21;100045.84;;;-4.71;73.66
35489;BME280;21602;55.670;37.578;2023-11-19T00:09:50;100043.59;;;-4.76;73.44
35489;BME280;21602;55.670;37.578;2023-11-19T00:12:16;100043.88;;;-4.79;73.53
35489;BME280;21602;55.670;37.578;2023-11-19T00:14:42;100036.50;;;-4.85;73.70
35489;BME280;21602;55.670;37.578;2023-11-19T00:17:08;100036.28;;;-4.82;73.66
35489;BME280;21602;55.670;37.578;2023-11-19T00:19:35;100032.03;;;-4.83;73.46
35489;BME280;21602;55.670;37.578;2023-11-19T00:22:01;100032.97;;;-4.84;73.55
35489;BME280;21602;55.670;37.578;2023-11-19T00:24:29;100030.59;;;-4.87;73.55
35489;BME280;21602;55.670;37.578;2023-11-19T00:26:56;100034.16;;;-4.88;73.73
35489;BME280;21602;55.670;37.578;2023-11-19T00:29:22;100040.28;;;-4.89;73.66
35489;BME280;21602;55.670;37.578;2023-11-19T00:31:47;100036.03;;;-4.90;73.59
35489;BME280;21602;55.670;37.578;2023-11-19T00:34:13;100031.78;;;-4.91;73.54
35489;BME280;21602;55.670;37.578;2023-11-19T00:36:39;100028.47;;;-4.93;73.62
35489;BME280;21602;55.670;37.578;2023-11-19T00:39:05;100023.00;;;-4.90;73.64
35489;BME280;21602;55.670;37.578;2023-11-19T00:41:31;100029.66;;;-4.86;73.69
35489;BME280;21602;55.670;37.578;2023-11-19T00:43:57;100025.84;;;-4.82;73.58
35489;BME280;21602;55.670;37.578;2023-11-19T00:46:23;100021.34;;;-4.80;73.66
35489;BME280;21602;55.670;37.578;2023-11-19T00:48:49;100019.34;;;-4.76;73.53
35489;BME280;21602;55.670;37.578;2023-11-19T00:51:15;100016.03;;;-4.78;73.53
35489;BME280;21602;55.670;37.578;2023-11-19T00:53:41;100013.44;;;-4.78;73.83
35489;BME280;21602;55.670;37.578;2023-11-19T00:56:07;100005.50;;;-4.77;73.61
35489;BME280;21602;55.670;37.578;2023-11-19T00:58:34;100008.09;;;-4.77;73.54
35489;BME280;21602;55.670;37.578;2023-11-19T01:00:59;100012.34;;;-4.76;73.58
35489;BME280;21602;55.670;37.578;2023-11-19T01:03:25;100007.41;;;-4.79;73.64
35489;BME280;21602;55.670;37.578;2023-11-19T01:05:51;100010.22;;;-4.82;73.77
35489;BME280;21602;55.670;37.578;2023-11-19T01:08:18;100010.22;;;-4.82;74.29
35489;BME280;21602;55.670;37.578;2023-11-19T01:10:44;100005.03;;;-4.82;74.48
35489;BME280;21602;55.670;37.578;2023-11-19T01:13:10;99995.28;;;-4.80;74.57
35489;BME280;21602;55.670;37.578;2023-11-19T01:15:35;99994.47;;;-4.80;74.80
35489;BME280;21602;55.670;37.578;2023-11-19T01:18:01;99983.22;;;-4.81;75.06
35489;BME280;21602;55.670;37.578;2023-11-19T01:20:31;99984.31;;;-4.83;74.97
35489;BME280;21602;55.670;37.578;2023-11-19T01:23:02;99984.66;;;-4.88;75.24
35489;BME280;21602;55.670;37.578;2023-11-19T01:25:28;99975.44;;;-4.92;75.44
35489;BME280;21602;55.670;37.578;2023-11-19T01:27:53;99975.66;;;-4.95;75.69
35489;BME280;21602;55.670;37.578;2023-11-19T01:30:21;99978.16;;;-4.94;75.94
35489;BME280;21602;55.670;37.578;2023-11-19T01:32:48;99977.91;;;-4.91;75.79
35489;BME280;21602;55.670;37.578;2023-11-19T01:35:14;99974.84;;;-4.96;75.57
35489;BME280;21602;55.670;37.578;2023-11-19T01:37:40;99984.31;;;-5.06;75.37
35489;BME280;21602;55.670;37.578;2023-11-19T01:40:06;99981.09;;;-5.09;75.22
35489;BME280;21602;55.670;37.578;2023-11-19T01:42:37;99988.44;;;-5.03;75.55
35489;BME280;21602;55.670;37.578;2023-11-19T01:45:04;99977.78;;;-5.00;75.42
35489;BME280;21602;55.670;37.578;2023-11-19T01:47:33;99974.25;;;-4.99;75.29
35489;BME280;21602;55.670;37.578;2023-11-19T01:49:59;99973.19;;;-4.97;75.34
35489;BME280;21602;55.670;37.578;2023-11-19T01:52:25;99967.75;;;-4.94;75.35
35489;BME280;21602;55.670;37.578;2023-11-19T01:54:53;99966.06;;;-4.95;75.43
35489;BME280;21602;55.670;37.578;2023-11-19T01:57:25;99959.44;;;-4.99;75.58
35489;BME280;21602;55.670;37.578;2023-11-19T01:59:51;99960.53;;;-5.01;75.57
35489;BME280;21602;55.670;37.578;2023-11-19T02:02:18;99968.56;;;-5.04;75.85
35489;BME280;21602;55.670;37.578;2023-11-19T02:04:49;99959.94;;;-5.05;75.93
35489;BME280;21602;55.670;37.578;2023-11-19T02:07:15;99967.72;;;-5.05;76.23
35489;BME280;21602;55.670;37.578;2023-11-19T02:09:45;99975.69;;;-5.06;76.24
35489;BME280;21602;55.670;37.578;2023-11-19T02:12:11;99970.59;;;-5.08;76.19
35489;BME280;21602;55.670;37.578;2023-11-19T02:14:39;99973.28;;;-5.09;76.50
35489;BME280;21602;55.670;37.578;2023-11-19T02:17:07;99965.75;;;-5.12;76.63
35489;BME280;21602;55.670;37.578;2023-11-19T02:19:33;99970.22;;;-5.15;76.49
35489;BME280;21602;55.670;37.578;2023-11-19T02:21:59;99966.78;;;-5.15;76.70
35489;BME280;21602;55.670;37.578;2023-11-19T02:24:29;99960.75;;;-5.16;76.70
35489;BME280;21602;55.670;37.578;2023-11-19T02:27:08;99966.91;;;-5.17;76.75
35489;BME280;21602;55.670;37.578;2023-11-19T02:29:36;99959.22;;;-5.18;76.98
35489;BME280;21602;55.670;37.578;2023-11-19T02:32:02;99961.13;;;-5.20;76.88
35489;BME280;21602;55.670;37.578;2023-11-19T02:34:28;99966.09;;;-5.17;76.79
35489;BME280;21602;55.670;37.578;2023-11-19T02:36:54;99957.19;;;-5.15;76.78
35489;BME280;21602;55.670;37.578;2023-11-19T02:39:20;99959.59;;;-5.11;76.78
35489;BME280;21602;55.670;37.578;2023-11-19T02:41:47;99953.91;;;-5.05;76.78
35489;BME280;21602;55.670;37.578;2023-11-19T02:44:16;99962.31;;;-5.02;76.56
35489;BME280;21602;55.670;37.578;2023-11-19T02:46:42;99955.09;;;-4.98;76.52
35489;BME280;21602;55.670;37.578;2023-11-19T02:49:08;99953.41;;;-4.99;76.42
35489;BME280;21602;55.670;37.578;2023-11-19T02:51:34;99953.31;;;-4.98;76.51
35489;BME280;21602;55.670;37.578;2023-11-19T02:54:04;99955.56;;;-4.93;76.46
35489;BME280;21602;55.670;37.578;2023-11-19T02:56:30;99962.28;;;-4.91;76.40
35489;BME280;21602;55.670;37.578;2023-11-19T02:59:00;99957.91;;;-4.90;76.38
35489;BME280;21602;55.670;37.578;2023-11-19T03:01:34;99959.69;;;-4.91;76.25
35489;BME280;21602;55.670;37.578;2023-11-19T03:04:01;99957.06;;;-4.91;76.05
35489;BME280;21602;55.670;37.578;2023-11-19T03:06:27;99953.06;;;-4.95;75.61
35489;BME280;21602;55.670;37.578;2023-11-19T03:08:54;99950.25;;;-5.03;75.48
35489;BME280;21602;55.670;37.578;2023-11-19T03:11:20;99948.00;;;-5.07;75.54
35489;BME280;21602;55.670;37.578;2023-11-19T03:13:46;99947.72;;;-5.04;75.48
35489;BME280;21602;55.670;37.578;2023-11-19T03:16:12;99948.69;;;-5.05;75.32
35489;BME280;21602;55.670;37.578;2023-11-19T03:18:38;99946.78;;;-5.03;75.31
35489;BME280;21602;55.670;37.578;2023-11-19T03:21:08;99943.94;;;-5.00;75.70
35489;BME280;21602;55.670;37.578;2023-11-19T03:23:34;99943.59;;;-4.96;75.85
35489;BME280;21602;55.670;37.578;2023-11-19T03:26:00;99944.31;;;-4.94;75.37
35489;BME280;21602;55.670;37.578;2023-11-19T03:28:29;99938.97;;;-4.92;75.21
35489;BME280;21602;55.670;37.578;2023-11-19T03:30:54;99946.53;;;-4.89;75.02
35489;BME280;21602;55.670;37.578;2023-11-19T03:33:21;99942.06;;;-4.87;75.55
35489;BME280;21602;55.670;37.578;2023-11-19T03:35:46;99941.09;;;-4.86;75.69
35489;BME280;21602;55.670;37.578;2023-11-19T03:38:12;99935.88;;;-4.86;75.84
35489;BME280;21602;55.670;37.578;2023-11-19T03:40:39;99940.72;;;-4.81;76.11
35489;BME280;21602;55.670;37.578;2023-11-19T03:43:06;99936.34;;;-4.81;76.01
35489;BME280;21602;55.670;37.578;2023-11-19T03:45:34;99934.47;;;-4.79;76.24
35489;BME280;21602;55.670;37.578;2023-11-19T03:48:01;99935.84;;;-4.75;76.64
35489;BME280;21602;55.670;37.578;2023-11-19T03:50:27;99933.16;;;-4.73;76.27
35489;BME280;21602;55.670;37.578;2023-11-19T03:52:53;99933.03;;;-4.72;76.14
35489;BME280;21602;55.670;37.578;2023-11-19T03:55:19;99932.31;;;-4.74;76.00
35489;BME280;21602;55.670;37.578;2023-11-19T03:57:44;99933.38;;;-4.76;76.00
35489;BME280;21602;55.670;37.578;2023-11-19T04:00:10;99929.81;;;-4.75;76.07
35489;BME280;21602;55.670;37.578;2023-11-19T04:02:39;99916.56;;;-4.72;76.03
35489;BME280;21602;55.670;37.578;2023-11-19T04:05:05;99915.50;;;-4.70;75.67
35489;BME280;21602;55.670;37.578;2023-11-19T04:07:32;99912.91;;;-4.70;75.90
35489;BME280;21602;55.670;37.578;2023-11-19T04:09:58;99903.16;;;-4.68;76.07
35489;BME280;21602;55.670;37.578;2023-11-19T04:12:24;99903.41;;;-4.59;76.04
35489;BME280;21602;55.670;37.578;2023-11-19T04:14:49;99898.75;;;-4.56;75.82
35489;BME280;21602;55.670;37.578;2023-11-19T04:17:15;99897.69;;;-4.53;75.88
35489;BME280;21602;55.670;37.578;2023-11-19T04:19:41;99896.34;;;-4.48;75.80
35489;BME280;21602;55.670;37.578;2023-11-19T04:22:07;99890.53;;;-4.40;75.54
35489;BME280;21602;55.670;37.578;2023-11-19T04:24:35;99886.00;;;-4.38;75.15
35489;BME280;21602;55.670;37.578;2023-11-19T04:27:00;99881.53;;;-4.36;75.01
35489;BME280;21602;55.670;37.578;2023-11-19T04:29:26;99888.16;;;-4.32;74.95
35489;BME280;21602;55.670;37.578;2023-11-19T04:31:53;99882.22;;;-4.34;74.84
35489;BME280;21602;55.670;37.578;2023-11-19T04:34:21;99886.59;;;-4.34;75.10
35489;BME280;21602;55.670;37.578;2023-11-19T04:36:47;99892.50;;;-4.32;74.96
35489;BME280;21602;55.670;37.578;2023-11-19T04:39:13;99889.06;;;-4.33;74.77
35489;BME280;21602;55.670;37.578;2023-11-19T04:41:50;99901.19;;;-4.32;74.81
35489;BME280;21602;55.670;37.578;2023-11-19T04:44:17;99895.38;;;-4.35;74.97
35489;BME280;21602;55.670;37.578;2023-11-19T04:46:43;99905.44;;;-4.42;75.01
35489;BME280;21602;55.670;37.578;2023-11-19T04:49:10;99906.09;;;-4.50;74.81
35489;BME280;21602;55.670;37.578;2023-11-19T04:51:40;99915.34;;;-4.57;74.62
35489;BME280;21602;55.670;37.578;2023-11-19T04:54:06;99914.88;;;-4.62;74.72
35489;BME280;21602;55.670;37.578;2023-11-19T04:56:34;99909.44;;;-4.59;74.74
35489;BME280;21602;55.670;37.578;2023-11-19T04:58:59;99907.66;;;-4.58;74.88
35489;BME280;21602;55.670;37.578;2023-11-19T05:01:25;99897.81;;;-4.55;74.77
35489;BME280;21602;55.670;37.578;2023-11-19T05:03:51;99903.47;;;-4.50;74.53
35489;BME280;21602;55.670;37.578;2023-11-19T05:06:17;99907.59;;;-4.47;74.51
35489;BME280;21602;55.670;37.578;2023-11-19T05:08:42;99902.75;;;-4.41;74.26
35489;BME280;21602;55.670;37.578;2023-11-19T05:11:08;99907.44;;;-4.34;74.02
35489;BME280;21602;55.670;37.578;2023-11-19T05:13:37;99906.75;;;-4.36;73.52
35489;BME280;21602;55.670;37.578;2023-11-19T05:16:03;99916.81;;;-4.32;73.38
35489;BME280;21602;55.670;37.578;2023-11-19T05:18:29;99914.22;;;-4.32;72.98
35489;BME280;21602;55.670;37.578;2023-11-19T05:20:55;99902.81;;;-4.31;72.77
35489;BME280;21602;55.670;37.578;2023-11-19T05:23:21;99911.09;;;-4.26;72.65
35489;BME280;21602;55.670;37.578;2023-11-19T05:25:47;99909.31;;;-4.25;72.44
35489;BME280;21602;55.670;37.578;2023-11-19T05:28:13;99923.16;;;-4.25;72.44
35489;BME280;21602;55.670;37.578;2023-11-19T05:30:39;99926.38;;;-4.21;72.72
35489;BME280;21602;55.670;37.578;2023-11-19T05:33:06;99919.38;;;-4.21;72.13
35489;BME280;21602;55.670;37.578;2023-11-19T05:35:34;99918.28;;;-4.18;72.28
35489;BME280;21602;55.670;37.578;2023-11-19T05:38:00;99925.41;;;-4.20;72.35
35489;BME280;21602;55.670;37.578;2023-11-19T05:40:26;99922.94;;;-4.22;72.72
35489;BME280;21602;55.670;37.578;2023-11-19T05:42:51;99913.31;;;-4.21;72.56
35489;BME280;21602;55.670;37.578;2023-11-19T05:45:17;99920.34;;;-4.33;71.23
35489;BME280;21602;55.670;37.578;2023-11-19T05:47:43;99914.69;;;-4.38;71.15
35489;BME280;21602;55.670;37.578;2023-11-19T05:50:09;99919.22;;;-4.40;71.21
35489;BME280;21602;55.670;37.578;2023-11-19T05:52:35;99914.94;;;-4.41;71.04
35489;BME280;21602;55.670;37.578;2023-11-19T05:55:01;99911.84;;;-4.35;71.43
35489;BME280;21602;55.670;37.578;2023-11-19T05:57:35;99914.66;;;-4.27;71.23
35489;BME280;21602;55.670;37.578;2023-11-19T06:00:00;99912.75;;;-4.25;70.81
35489;BME280;21602;55.670;37.578;2023-11-19T06:02:26;99908.88;;;-4.30;69.98
35489;BME280;21602;55.670;37.578;2023-11-19T06:04:53;99908.31;;;-4.45;71.30
35489;BME280;21602;55.670;37.578;2023-11-19T06:07:18;99909.75;;;-4.52;72.92
35489;BME280;21602;55.670;37.578;2023-11-19T06:09:45;99917.84;;;-4.55;73.42
35489;BME280;21602;55.670;37.578;2023-11-19T06:12:10;99909.53;;;-4.60;73.57
35489;BME280;21602;55.670;37.578;2023-11-19T06:14:37;99899.63;;;-4.67;73.80
35489;BME280;21602;55.670;37.578;2023-11-19T06:17:03;99907.44;;;-4.67;74.18
35489;BME280;21602;55.670;37.578;2023-11-19T06:19:30;99901.72;;;-4.60;74.68
35489;BME280;21602;55.670;37.578;2023-11-19T06:21:56;99909.16;;;-4.56;74.62
35489;BME280;21602;55.670;37.578;2023-11-19T06:24:21;99910.03;;;-4.55;74.84
35489;BME280;21602;55.670;37.578;2023-11-19T06:26:47;99908.59;;;-4.59;75.06
35489;BME280;21602;55.670;37.578;2023-11-19T06:29:13;99908.16;;;-4.65;75.46
35489;BME280;21602;55.670;37.578;2023-11-19T06:31:43;99909.66;;;-4.62;76.10
35489;BME280;21602;55.670;37.578;2023-11-19T06:34:17;99896.28;;;-4.57;76.48
35489;BME280;21602;55.670;37.578;2023-11-19T06:36:44;99899.59;;;-4.55;76.72
35489;BME280;21602;55.670;37.578;2023-11-19T06:39:10;99899.34;;;-4.52;76.98
35489;BME280;21602;55.670;37.578;2023-11-19T06:41:46;99904.75;;;-4.44;77.04
35489;BME280;21602;55.670;37.578;2023-11-19T06:44:12;99897.41;;;-4.39;76.72
35489;BME280;21602;55.670;37.578;2023-11-19T06:46:38;99892.09;;;-4.49;76.54
35489;BME280;21602;55.670;37.578;2023-11-19T06:49:04;99895.78;;;-4.51;77.06
35489;BME280;21602;55.670;37.578;2023-11-19T06:51:30;99889.19;;;-4.55;77.13
35489;BME280;21602;55.670;37.578;2023-11-19T06:53:55;99882.41;;;-4.58;76.99
35489;BME280;21602;55.670;37.578;2023-11-19T06:56:22;99886.09;;;-4.60;77.08
35489;BME280;21602;55.670;37.578;2023-11-19T06:58:50;99890.00;;;-4.55;77.29
35489;BME280;21602;55.670;37.578;2023-11-19T07:01:17;99901.47;;;-4.46;77.27
35489;BME280;21602;55.670;37.578;2023-11-19T07:03:46;99902.16;;;-4.44;76.92
35489;BME280;21602;55.670;37.578;2023-11-19T07:06:12;99897.91;;;-4.45;76.84
35489;BME280;21602;55.670;37.578;2023-11-19T07:08:38;99899.56;;;-4.44;77.15
35489;BME280;21602;55.670;37.578;2023-11-19T07:11:13;99895.47;;;-4.37;77.44
35489;BME280;21602;55.670;37.578;2023-11-19T07:13:41;99896.66;;;-4.30;77.36
35489;BME280;21602;55.670;37.578;2023-11-19T07:16:07;99891.75;;;-4.23;77.15
35489;BME280;21602;55.670;37.578;2023-11-19T07:18:36;99906.19;;;-4.19;77.12
35489;BME280;21602;55.670;37.578;2023-11-19T07:21:04;99904.84;;;-4.14;77.38
35489;BME280;21602;55.670;37.578;2023-11-19T07:23:29;99904.00;;;-4.03;77.02
35489;BME280;21602;55.670;37.578;2023-11-19T07:25:56;99897.44;;;-3.97;76.91
35489;BME280;21602;55.670;37.578;2023-11-19T07:28:22;99894.56;;;-3.94;76.75
35489;BME280;21602;55.670;37.578;2023-11-19T07:30:49;99894.06;;;-3.88;77.30
35489;BME280;21602;55.670;37.578;2023-11-19T07:33:15;99900.56;;;-3.82;76.27
35489;BME280;21602;55.670;37.578;2023-11-19T07:35:43;99893.81;;;-3.85;75.82
35489;BME280;21602;55.670;37.578;2023-11-19T07:38:09;99890.75;;;-3.90;75.55
35489;BME280;21602;55.670;37.578;2023-11-19T07:40:39;99884.41;;;-3.97;75.70
35489;BME280;21602;55.670;37.578;2023-11-19T07:43:07;99889.34;;;-3.94;75.68
35489;BME280;21602;55.670;37.578;2023-11-19T07:45:33;99892.53;;;-3.91;75.39
35489;BME280;21602;55.670;37.578;2023-11-19T07:48:00;99893.75;;;-3.95;74.80
35489;BME280;21602;55.670;37.578;2023-11-19T07:50:31;99899.41;;;-4.10;74.55
35489;BME280;21602;55.670;37.578;2023-11-19T07:53:00;99895.91;;;-4.21;74.89
35489;BME280;21602;55.670;37.578;2023-11-19T07:55:25;99893.81;;;-4.27;75.03
35489;BME280;21602;55.670;37.578;2023-11-19T07:57:55;99897.09;;;-4.25;75.29
35489;BME280;21602;55.670;37.578;2023-11-19T08:00:25;99896.88;;;-4.22;75.89
35489;BME280;21602;55.670;37.578;2023-11-19T08:02:51;99893.88;;;-4.17;75.93
35489;BME280;21602;55.670;37.578;2023-11-19T08:05:17;99886.16;;;-4.19;74.89
35489;BME280;21602;55.670;37.578;2023-11-19T08:07:43;99891.69;;;-4.33;74.83
35489;BME280;21602;55.670;37.578;2023-11-19T08:10:08;99883.53;;;-4.40;75.36
35489;BME280;21602;55.670;37.578;2023-11-19T08:12:35;99885.78;;;-4.35;75.22
35489;BME280;21602;55.670;37.578;2023-11-19T08:15:02;99882.41;;;-4.26;75.80
35489;BME280;21602;55.670;37.578;2023-11-19T08:17:40;99883.38;;;-4.06;75.90
35489;BME280;21602;55.670;37.578;2023-11-19T08:20:06;99876.78;;;-3.89;75.44
35489;BME280;21602;55.670;37.578;2023-11-19T08:22:38;99876.69;;;-3.78;74.69
35489;BME280;21602;55.670;37.578;2023-11-19T08:25:05;99876.94;;;-3.81;73.62
35489;BME280;21602;55.670;37.578;2023-11-19T08:27:31;99877.03;;;-3.92;74.39
35489;BME280;21602;55.670;37.578;2023-11-19T08:29:57;99866.34;;;-3.89;74.76
35489;BME280;21602;55.670;37.578;2023-11-19T08:32:29;99868.56;;;-3.84;73.84
35489;BME280;21602;55.670;37.578;2023-11-19T08:34:54;99867.47;;;-3.82;73.85
35489;BME280;21602;55.670;37.578;2023-11-19T08:37:21;99857.03;;;-3.82;73.64
35489;BME280;21602;55.670;37.578;2023-11-19T08:39:47;99861.28;;;-3.81;73.60
35489;BME280;21602;55.670;37.578;2023-11-19T08:42:13;99864.72;;;-3.80;73.49
35489;BME280;21602;55.670;37.578;2023-11-19T08:44:39;99864.41;;;-3.87;73.67
35489;BME280;21602;55.670;37.578;2023-11-19T08:47:11;99859.72;;;-3.93;73.51
35489;BME280;21602;55.670;37.578;2023-11-19T08:49:37;99865.72;;;-4.02;73.76
35489;BME280;21602;55.670;37.578;2023-11-19T08:52:03;99866.25;;;-3.99;73.40
35489;BME280;21602;55.670;37.578;2023-11-19T08:54:30;99872.81;;;-4.04;73.67
35489;BME280;21602;55.670;37.578;2023-11-19T08:56:59;99868.56;;;-4.05;73.16
35489;BME280;21602;55.670;37.578;2023-11-19T08:59:29;99874.09;;;-4.20;73.20
35489;BME280;21602;55.670;37.578;2023-11-19T09:01:54;99865.44;;;-4.20;73.60
35489;BME280;21602;55.670;37.578;2023-11-19T09:04:20;99868.28;;;-4.23;73.85
35489;BME280;21602;55.670;37.578;2023-11-19T09:06:49;99864.75;;;-4.22;73.42
35489;BME280;21602;55.670;37.578;2023-11-19T09:09:14;99859.53;;;-4.22;73.03
35489;BME280;21602;55.670;37.578;2023-11-19T09:11:46;99851.81;;;-4.24;73.75
35489;BME280;21602;55.670;37.578;2023-11-19T09:14:21;99847.88;;;-4.18;72.65
35489;BME280;21602;55.670;37.578;2023-11-19T09:16:51;99851.06;;;-4.15;72.71
35489;BME280;21602;55.670;37.578;2023-11-19T09:19:19;99854.84;;;-4.07;71.80
35489;BME280;21602;55.670;37.578;2023-11-19T09:21:46;99841.75;;;-4.17;71.49
35489;BME280;21602;55.670;37.578;2023-11-19T09:24:13;99840.63;;;-4.15;71.48
35489;BME280;21602;55.670;37.578;2023-11-19T09:26:39;99840.41;;;-4.12;71.46
35489;BME280;21602;55.670;37.578;2023-11-19T09:29:07;99841.75;;;-4.17;70.49
35489;BME280;21602;55.670;37.578;2023-11-19T09:31:33;99833.78;;;-4.16;70.56
35489;BME280;21602;55.670;37.578;2023-11-19T09:34:00;99831.84;;;-4.14;70.49
35489;BME280;21602;55.670;37.578;2023-11-19T09:36:25;99826.59;;;-4.02;70.26
35489;BME280;21602;55.670;37.578;2023-11-19T09:38:51;99827.56;;;-4.03;69.20
35489;BME280;21602;55.670;37.578;2023-11-19T09:41:23;99818.06;;;-4.04;69.29
35489;BME280;21602;55.670;37.578;2023-11-19T09:43:49;99810.66;;;-3.99;68.70
35489;BME280;21602;55.670;37.578;2023-11-19T09:46:18;99816.31;;;-3.94;68.46
35489;BME280;21602;55.670;37.578;2023-11-19T09:48:47;99807.91;;;-4.07;68.45
35489;BME280;21602;55.670;37.578;2023-11-19T09:51:18;99808.00;;;-4.09;68.62
35489;BME280;21602;55.670;37.578;2023-11-19T09:53:46;99814.84;;;-4.18;68.53
35489;BME280;21602;55.670;37.578;2023-11-19T09:56:12;99799.69;;;-4.24;68.73
35489;BME280;21602;55.670;37.578;2023-11-19T09:58:38;99794.91;;;-4.19;68.30
35489;BME280;21602;55.670;37.578;2023-11-19T10:01:05;99798.41;;;-4.08;67.89
35489;BME280;21602;55.670;37.578;2023-11-19T10:03:36;99796.38;;;-4.05;67.89
35489;BME280;21602;55.670;37.578;2023-11-19T10:06:12;99785.56;;;-4.00;67.40
35489;BME280;21602;55.670;37.578;2023-11-19T10:08:47;99779.69;;;-3.93;66.90
35489;BME280;21602;55.670;37.578;2023-11-19T10:11:16;99771.34;;;-3.87;66.52
35489;BME280;21602;55.670;37.578;2023-11-19T10:13:42;99780.16;;;-3.78;66.21
35489;BME280;21602;55.670;37.578;2023-11-19T10:16:08;99788.00;;;-3.78;65.94
35489;BME280;21602;55.670;37.578;2023-11-19T10:18:37;99781.53;;;-3.83;65.77
35489;BME280;21602;55.670;37.578;2023-11-19T10:21:06;99784.25;;;-3.85;65.88
35489;BME280;21602;55.670;37.578;2023-11-19T10:23:47;99785.91;;;-3.84;65.83
35489;BME280;21602;55.670;37.578;2023-11-19T10:26:17;99783.13;;;-3.92;65.73
35489;BME280;21602;55.670;37.578;2023-11-19T10:28:46;99770.22;;;-3.94;65.71
35489;BME280;21602;55.670;37.578;2023-11-19T10:31:19;99773.47;;;-4.01;65.51
35489;BME280;21602;55.670;37.578;2023-11-19T10:33:45;99767.09;;;-4.08;65.82
35489;BME280;21602;55.670;37.578;2023-11-19T10:36:12;99770.97;;;-4.13;65.69
35489;BME280;21602;55.670;37.578;2023-11-19T10:38:37;99775.03;;;-4.20;65.88
35489;BME280;21602;55.670;37.578;2023-11-19T10:41:14;99779.78;;;-4.25;65.95
35489;BME280;21602;55.670;37.578;2023-11-19T10:43:51;99781.81;;;-4.28;66.09
35489;BME280;21602;55.670;37.578;2023-11-19T10:46:17;99783.34;;;-4.26;65.93
35489;BME280;21602;55.670;37.578;2023-11-19T10:48:48;99780.38;;;-4.21;66.15
35489;BME280;21602;55.670;37.578;2023-11-19T10:51:22;99778.34;;;-4.18;65.84
35489;BME280;21602;55.670;37.578;2023-11-19T10:53:53;99776.38;;;-4.25;65.90
35489;BME280;21602;55.670;37.578;2023-11-19T10:56:25;99771.97;;;-4.25;65.63
35489;BME280;21602;55.670;37.578;2023-11-19T10:58:55;99774.78;;;-4.17;65.69
35489;BME280;21602;55.670;37.578;2023-11-19T11:01:34;99773.56;;;-4.13;65.67
35489;BME280;21602;55.670;37.578;2023-11-19T11:04:06;99770.44;;;-4.27;65.39
35489;BME280;21602;55.670;37.578;2023-11-19T11:06:38;99775.09;;;-4.31;65.19
35489;BME280;21602;55.670;37.578;2023-11-19T11:09:13;99771.66;;;-4.31;65.31
35489;BME280;21602;55.670;37.578;2023-11-19T11:12:05;99771.91;;;-4.34;65.49
35489;BME280;21602;55.670;37.578;2023-11-19T11:14:31;99770.00;;;-4.32;65.27
35489;BME280;21602;55.670;37.578;2023-11-19T11:16:58;99775.22;;;-4.32;65.27
35489;BME280;21602;55.670;37.578;2023-11-19T11:19:23;99764.16;;;-4.25;64.78
35489;BME280;21602;55.670;37.578;2023-11-19T11:21:53;99767.34;;;-4.21;64.51
35489;BME280;21602;55.670;37.578;2023-11-19T11:24:42;99764.44;;;-4.18;64.54
35489;BME280;21602;55.670;37.578;2023-11-19T11:29:54;99769.81;;;-4.20;63.97
35489;BME280;21602;55.670;37.578;2023-11-19T11:38:10;99760.91;;;-4.38;64.46
35489;BME280;21602;55.670;37.578;2023-11-19T11:40:37;99754.44;;;-4.44;64.79
35489;BME280;21602;55.670;37.578;2023-11-19T11:43:02;99754.06;;;-4.39;64.94
35489;BME280;21602;55.670;37.578;2023-11-19T11:45:35;99756.56;;;-4.28;64.73
35489;BME280;21602;55.670;37.578;2023-11-19T11:48:16;99763.38;;;-4.16;64.63
35489;BME280;21602;55.670;37.578;2023-11-19T11:50:53;99756.13;;;-4.12;64.49
35489;BME280;21602;55.670;37.578;2023-11-19T11:53:21;99758.47;;;-4.09;64.41
35489;BME280;21602;55.670;37.578;2023-11-19T11:58:25;99758.59;;;-4.10;64.21
35489;BME280;21602;55.670;37.578;2023-11-19T12:01:03;99760.56;;;-4.03;64.11
35489;BME280;21602;55.670;37.578;2023-11-19T12:03:31;99756.34;;;-3.94;64.02
35489;BME280;21602;55.670;37.578;2023-11-19T12:05:57;99751.81;;;-3.92;63.66
35489;BME280;21602;55.670;37.578;2023-11-19T12:08:27;99750.47;;;-3.87;63.81
35489;BME280;21602;55.670;37.578;2023-11-19T12:10:57;99752.69;;;-3.82;63.63
35489;BME280;21602;55.670;37.578;2023-11-19T12:13:29;99743.22;;;-3.83;63.36
35489;BME280;21602;55.670;37.578;2023-11-19T12:16:08;99740.75;;;-3.84;63.27
35489;BME280;21602;55.670;37.578;2023-11-19T12:18:38;99742.50;;;-3.85;63.32
35489;BME280;21602;55.670;37.578;2023-11-19T12:21:04;99748.16;;;-3.80;63.49
35489;BME280;21602;55.670;37.578;2023-11-19T12:23:31;99740.47;;;-3.81;63.38
35489;BME280;21602;55.670;37.578;2023-11-19T12:25:57;99742.78;;;-3.88;63.51
35489;BME280;21602;55.670;37.578;2023-11-19T12:28:23;99741.41;;;-3.92;63.18
35489;BME280;21602;55.670;37.578;2023-11-19T12:30:53;99744.75;;;-4.11;62.90
35489;BME280;21602;55.670;37.578;2023-11-19T12:33:22;99731.41;;;-4.18;63.52
35489;BME280;21602;55.670;37.578;2023-11-19T12:35:50;99733.34;;;-4.10;63.76
35489;BME280;21602;55.670;37.578;2023-11-19T12:38:23;99729.56;;;-3.96;63.66
35489;BME280;21602;55.670;37.578;2023-11-19T12:41:08;99731.25;;;-3.86;63.34
35489;BME280;21602;55.670;37.578;2023-11-19T12:43:36;99735.06;;;-3.90;63.04
35489;BME280;21602;55.670;37.578;2023-11-19T12:46:24;99722.97;;;-4.00;63.12
35489;BME280;21602;55.670;37.578;2023-11-19T12:48:49;99725.56;;;-4.00;63.19
35489;BME280;21602;55.670;37.578;2023-11-19T12:51:15;99717.50;;;-3.97;63.28
35489;BME280;21602;55.670;37.578;2023-11-19T12:53:50;99714.47;;;-4.02;63.19
35489;BME280;21602;55.670;37.578;2023-11-19T12:56:22;99718.97;;;-4.04;63.35
35489;BME280;21602;55.670;37.578;2023-11-19T12:58:47;99715.66;;;-4.06;63.69
35489;BME280;21602;55.670;37.578;2023-11-19T13:01:17;99711.03;;;-4.03;63.67
35489;BME280;21602;55.670;37.578;2023-11-19T13:03:44;99703.88;;;-4.01;63.75
35489;BME280;21602;55.670;37.578;2023-11-19T13:06:13;99716.91;;;-4.01;63.76